createdAt,value
2022-07-30T00:01:17.915Z,74.65
2022-07-30T00:03:45.023Z,74.63
2022-07-30T00:06:11.920Z,74.76
2022-07-30T00:08:38.850Z,75.27
2022-07-30T00:11:05.893Z,75.81
2022-07-30T00:13:32.930Z,75.53
2022-07-30T00:15:59.843Z,75.44
2022-07-30T00:18:26.931Z,76.34
2022-07-30T00:20:53.762Z,75.93
2022-07-30T00:23:25.621Z,75.67
2022-07-30T00:25:52.617Z,78.33
2022-07-30T00:28:19.570Z,78.54
2022-07-30T00:30:46.603Z,78.35
2022-07-30T00:33:19.921Z,78.14
2022-07-30T00:35:46.932Z,79.48
2022-07-30T00:38:13.952Z,80.66
2022-07-30T00:40:41.442Z,80.84
2022-07-30T00:43:08.391Z,79.89
2022-07-30T00:45:35.896Z,82.28
2022-07-30T00:48:03.093Z,82.59
2022-07-30T00:50:29.938Z,84.41
2022-07-30T00:52:57.565Z,83.55
2022-07-30T00:55:24.508Z,84.50
2022-07-30T00:57:51.475Z,83.13
2022-07-30T01:00:19.951Z,81.67
2022-07-30T01:02:47.253Z,82.48
2022-07-30T01:05:14.837Z,82.27
2022-07-30T01:07:42.207Z,83.09
2022-07-30T01:10:15.183Z,84.17
2022-07-30T01:12:44.184Z,83.42
2022-07-30T01:15:12.754Z,82.82
2022-07-30T01:17:39.787Z,82.53
2022-07-30T01:20:15.481Z,82.05
2022-07-30T01:23:27.772Z,82.09
2022-07-30T01:26:09.933Z,83.26
2022-07-30T01:28:43.261Z,82.79
2022-07-30T01:31:13.913Z,82.79
2022-07-30T01:33:50.851Z,82.54
2022-07-30T01:36:23.570Z,82.39
2022-07-30T01:38:53.426Z,82.85
2022-07-30T01:41:24.639Z,83.89
2022-07-30T01:43:54.161Z,83.22
2022-07-30T01:46:25.423Z,83.66
2022-07-30T01:48:54.275Z,82.13
2022-07-30T01:51:21.162Z,84.63
2022-07-30T01:53:51.493Z,82.61
2022-07-30T01:56:24.899Z,83.25
2022-07-30T01:58:55.747Z,82.61
2022-07-30T02:01:24.750Z,83.10
2022-07-30T02:03:51.866Z,82.37
2022-07-30T02:06:24.809Z,82.79
2022-07-30T02:08:58.177Z,83.38
2022-07-30T02:11:44.082Z,82.95
2022-07-30T02:14:29.797Z,83.64
2022-07-30T02:16:59.311Z,84.57
2022-07-30T02:19:44.454Z,84.70
2022-07-30T02:22:18.912Z,86.99
2022-07-30T02:24:49.313Z,88.70
2022-07-30T02:27:27.106Z,90.26
2022-07-30T02:29:59.165Z,92.40
2022-07-30T02:32:33.904Z,91.11
2022-07-30T02:35:10.414Z,89.34
2022-07-30T02:37:43.572Z,92.54
2022-07-30T02:40:16.701Z,92.53
2022-07-30T02:42:50.390Z,91.43
2022-07-30T02:45:19.062Z,92.03
2022-07-30T02:47:55.046Z,91.54
2022-07-30T02:50:24.928Z,91.05
2022-07-30T02:52:55.517Z,90.83
2022-07-30T02:55:24.982Z,90.95
2022-07-30T02:57:55.268Z,92.12
2022-07-30T03:00:25.575Z,90.97
2022-07-30T03:02:57.152Z,92.98
2022-07-30T03:05:26.910Z,91.18
2022-07-30T03:07:57.775Z,91.83
2022-07-30T03:10:27.427Z,91.42
2022-07-30T03:12:56.522Z,90.95
2022-07-30T03:15:23.953Z,91.89
2022-07-30T03:17:55.584Z,92.03
2022-07-30T03:20:29.637Z,91.46
2022-07-30T03:22:59.939Z,90.41
2022-07-30T03:25:29.767Z,91.68
2022-07-30T03:28:00.889Z,91.72
2022-07-30T03:30:29.679Z,92.25
2022-07-30T03:32:57.952Z,91.61
2022-07-30T03:35:26.483Z,91.93
2022-07-30T03:37:55.640Z,92.33
2022-07-30T03:40:24.222Z,90.22
2022-07-30T03:42:52.065Z,90.57
2022-07-30T03:45:20.556Z,91.08
2022-07-30T03:47:48.672Z,91.58
2022-07-30T03:50:15.933Z,90.92
2022-07-30T03:52:43.604Z,91.14
2022-07-30T03:55:12.237Z,91.91
2022-07-30T03:57:39.751Z,91.86
2022-07-30T04:00:15.544Z,91.80
2022-07-30T04:02:47.656Z,91.52
2022-07-30T04:05:16.624Z,90.27
2022-07-30T04:07:45.203Z,91.34
2022-07-30T04:10:13.674Z,90.03
2022-07-30T04:12:40.531Z,90.55
2022-07-30T04:16:31.753Z,91.36
2022-07-30T04:18:03.039Z,91.07
2022-07-30T04:20:37.092Z,90.55
2022-07-30T04:23:04.857Z,91.51
2022-07-30T04:25:33.920Z,92.00
2022-07-30T04:28:03.662Z,90.35
2022-07-30T04:30:34.888Z,90.93
2022-07-30T04:33:05.643Z,90.52
2022-07-30T04:35:50.233Z,90.07
2022-07-30T04:38:20.152Z,89.87
2022-07-30T04:40:47.964Z,89.75
2022-07-30T04:43:16.026Z,89.66
2022-07-30T04:45:43.594Z,90.68
2022-07-30T04:48:10.768Z,91.49
2022-07-30T04:50:45.594Z,90.84
2022-07-30T04:53:12.869Z,91.70
2022-07-30T04:55:45.542Z,92.47
2022-07-30T04:58:16.598Z,92.14
2022-07-30T05:00:45.278Z,92.60
2022-07-30T05:03:16.410Z,92.24
2022-07-30T05:05:45.750Z,92.56
2022-07-30T05:08:13.436Z,91.63
2022-07-30T05:10:40.856Z,92.62
2022-07-30T05:13:14.138Z,92.97
2022-07-30T05:15:41.919Z,92.63
2022-07-30T05:18:08.912Z,92.66
2022-07-30T05:20:35.711Z,92.57
2022-07-30T05:23:03.841Z,92.79
2022-07-30T05:25:30.701Z,91.98
2022-07-30T05:27:58.206Z,92.63
2022-07-30T05:30:27.710Z,92.49
2022-07-30T05:32:56.037Z,93.78
2022-07-30T05:35:23.385Z,94.59
2022-07-30T05:37:50.468Z,94.36
2022-07-30T05:40:17.400Z,93.76
2022-07-30T05:42:44.302Z,93.89
2022-07-30T05:45:11.501Z,93.76
2022-07-30T05:47:38.308Z,95.10
2022-07-30T05:50:05.840Z,94.27
2022-07-30T05:52:33.884Z,94.33
2022-07-30T05:55:00.807Z,95.68
2022-07-30T05:57:27.741Z,95.59
2022-07-30T05:59:54.724Z,95.59
2022-07-30T06:02:24.503Z,96.53
2022-07-30T06:04:52.377Z,97.19
2022-07-30T06:07:19.445Z,96.91
2022-07-30T06:09:46.735Z,97.40
2022-07-30T06:12:13.714Z,98.03
2022-07-30T06:14:40.691Z,98.52
2022-07-30T06:17:07.564Z,99.15
2022-07-30T06:19:34.420Z,98.96
2022-07-30T06:22:05.508Z,98.89
2022-07-30T06:24:34.534Z,99.35
2022-07-30T06:27:02.490Z,99.97
2022-07-30T06:29:29.739Z,100.00
2022-07-30T06:31:56.763Z,100.00
2022-07-30T06:34:23.684Z,100.00
2022-07-30T06:36:51.157Z,100.00
2022-07-30T06:39:57.876Z,100.00
2022-07-30T06:42:05.422Z,100.00
2022-07-30T06:44:32.297Z,100.00
2022-07-30T06:47:02.904Z,100.00
2022-07-30T06:49:35.359Z,100.00
2022-07-30T06:52:02.939Z,100.00
2022-07-30T06:54:30.247Z,100.00
2022-07-30T06:56:57.587Z,100.00
2022-07-30T06:59:24.646Z,100.00
2022-07-30T07:01:54.307Z,100.00
2022-07-30T07:04:21.707Z,100.00
2022-07-30T07:06:48.613Z,100.00
2022-07-30T07:09:18.478Z,100.00
2022-07-30T07:11:45.507Z,100.00
2022-07-30T07:14:12.467Z,100.00
2022-07-30T07:16:39.539Z,100.00
2022-07-30T07:19:06.636Z,100.00
2022-07-30T07:21:33.525Z,100.00
2022-07-30T07:24:03.253Z,100.00
2022-07-30T07:26:32.267Z,100.00
2022-07-30T07:29:02.224Z,100.00
2022-07-30T07:32:05.419Z,100.00
2022-07-30T07:34:19.366Z,100.00
2022-07-30T07:36:46.503Z,100.00
2022-07-30T07:39:14.864Z,100.00
2022-07-30T07:41:48.392Z,100.00
2022-07-30T07:44:16.556Z,100.00
2022-07-30T07:46:43.686Z,100.00
2022-07-30T07:49:10.762Z,100.00
2022-07-30T07:51:47.335Z,100.00
2022-07-30T07:54:21.993Z,100.00
2022-07-30T07:56:53.054Z,100.00
2022-07-30T07:59:20.436Z,100.00
2022-07-30T08:01:47.847Z,100.00
2022-07-30T08:04:18.160Z,100.00
2022-07-30T08:06:45.653Z,100.00
2022-07-30T08:09:12.526Z,100.00
2022-07-30T08:11:39.618Z,100.00
2022-07-30T08:14:06.581Z,100.00
2022-07-30T08:16:33.505Z,100.00
2022-07-30T08:19:00.920Z,100.00
2022-07-30T08:21:27.983Z,100.00
2022-07-30T08:23:54.929Z,100.00
2022-07-30T08:26:22.170Z,100.00
2022-07-30T08:28:49.050Z,100.00
2022-07-30T08:31:16.376Z,100.00
2022-07-30T08:33:43.822Z,100.00
2022-07-30T08:36:11.366Z,100.00
2022-07-30T08:38:39.578Z,100.00
2022-07-30T08:41:07.696Z,100.00
2022-07-30T08:43:36.682Z,100.00
2022-07-30T08:46:10.070Z,100.00
2022-07-30T08:48:38.286Z,100.00
2022-07-30T08:51:06.166Z,100.00
2022-07-30T08:53:34.985Z,100.00
2022-07-30T08:56:04.085Z,100.00
2022-07-30T08:58:37.149Z,100.00
2022-07-30T09:01:06.420Z,100.00
2022-07-30T09:03:34.811Z,100.00
2022-07-30T09:06:04.107Z,100.00
2022-07-30T09:08:32.242Z,100.00
2022-07-30T09:11:00.153Z,99.16
2022-07-30T09:13:27.958Z,100.00
2022-07-30T09:15:56.282Z,100.00
2022-07-30T09:18:44.428Z,100.00
2022-07-30T09:21:28.388Z,98.43
2022-07-30T09:24:05.269Z,99.33
2022-07-30T09:26:51.699Z,100.00
2022-07-30T09:29:25.313Z,99.05
2022-07-30T09:31:59.503Z,98.85
2022-07-30T09:34:31.946Z,99.29
2022-07-30T09:37:04.019Z,98.41
2022-07-30T09:39:40.137Z,97.64
2022-07-30T09:42:28.566Z,97.75
2022-07-30T09:45:15.511Z,97.72
2022-07-30T09:47:48.384Z,97.21
2022-07-30T09:50:29.299Z,92.72
2022-07-30T09:53:08.857Z,93.77
2022-07-30T09:58:26.895Z,91.24
2022-07-30T10:01:01.366Z,86.41
2022-07-30T10:03:34.069Z,87.89
2022-07-30T10:06:11.333Z,85.89
2022-07-30T10:08:45.867Z,83.67
2022-07-30T10:11:23.667Z,81.93
2022-07-30T10:13:56.027Z,81.51
2022-07-30T10:16:27.564Z,79.55
2022-07-30T10:19:00.468Z,79.54
2022-07-30T10:21:28.636Z,78.30
2022-07-30T10:23:59.997Z,77.68
2022-07-30T10:26:30.446Z,75.35
2022-07-30T10:28:59.252Z,76.22
2022-07-30T10:31:48.519Z,75.22
2022-07-30T10:34:17.283Z,75.94
2022-07-30T10:36:57.605Z,73.87
2022-07-30T10:39:38.792Z,73.86
2022-07-30T10:42:39.725Z,73.17
2022-07-30T10:45:31.482Z,75.47
2022-07-30T10:48:03.604Z,73.44
2022-07-30T10:50:32.685Z,72.19
2022-07-30T10:53:02.524Z,72.90
2022-07-30T10:55:38.759Z,73.65
2022-07-30T10:58:14.455Z,74.58
2022-07-30T11:00:53.904Z,72.81
2022-07-30T11:03:40.552Z,72.38
2022-07-30T11:06:15.034Z,71.79
2022-07-30T11:08:48.467Z,72.75
2022-07-30T11:12:02.140Z,73.33
2022-07-30T11:14:47.994Z,72.99
2022-07-30T11:17:19.976Z,73.35
2022-07-30T11:20:06.695Z,73.63
2022-07-30T11:22:41.337Z,72.54
2022-07-30T11:25:49.878Z,72.58
2022-07-30T11:28:42.673Z,71.62
2022-07-30T11:31:55.865Z,69.82
2022-07-30T11:34:19.275Z,71.15
2022-07-30T11:37:18.779Z,70.65
2022-07-30T11:39:55.792Z,69.48
2022-07-30T11:42:39.358Z,68.60
2022-07-30T11:45:15.396Z,69.00
2022-07-30T11:47:48.877Z,69.72
2022-07-30T11:50:35.714Z,68.34
2022-07-30T11:53:06.236Z,66.63
2022-07-30T11:55:40.205Z,67.99
2022-07-30T11:58:11.514Z,67.20
2022-07-30T12:00:48.085Z,65.78
2022-07-30T12:03:18.596Z,66.42
2022-07-30T12:05:53.404Z,67.15
2022-07-30T12:08:33.356Z,66.51
2022-07-30T12:11:03.537Z,66.95
2022-07-30T12:13:42.847Z,67.05
2022-07-30T12:16:16.406Z,66.61
2022-07-30T12:18:45.192Z,66.81
2022-07-30T12:21:13.581Z,66.29
2022-07-30T12:23:43.362Z,68.05
2022-07-30T12:26:24.645Z,67.61
2022-07-30T12:28:56.234Z,66.57
2022-07-30T12:31:23.268Z,66.78
2022-07-30T12:33:50.552Z,66.35
2022-07-30T12:36:32.154Z,65.41
2022-07-30T12:39:01.723Z,63.84
2022-07-30T12:41:47.895Z,64.38
2022-07-30T12:44:42.326Z,64.32
2022-07-30T12:47:26.074Z,64.10
2022-07-30T12:50:00.669Z,64.12
2022-07-30T12:52:35.576Z,64.25
2022-07-30T12:55:10.628Z,64.79
2022-07-30T12:58:07.671Z,64.42
2022-07-30T13:00:44.215Z,64.84
2022-07-30T13:03:25.170Z,63.87
2022-07-30T13:05:55.925Z,63.82
2022-07-30T13:08:50.844Z,63.33
2022-07-30T13:11:21.020Z,63.58
2022-07-30T13:13:49.214Z,62.25
2022-07-30T13:16:18.750Z,61.76
2022-07-30T13:18:46.442Z,62.84
2022-07-30T13:21:14.090Z,62.60
2022-07-30T13:23:42.256Z,61.69
2022-07-30T13:26:10.636Z,61.30
2022-07-30T13:28:38.620Z,61.63
2022-07-30T13:31:07.726Z,61.48
2022-07-30T13:33:38.915Z,60.01
2022-07-30T13:36:07.555Z,60.78
2022-07-30T13:38:34.911Z,59.38
2022-07-30T13:41:03.083Z,60.21
2022-07-30T13:43:33.533Z,59.62
2022-07-30T13:46:05.580Z,59.50
2022-07-30T13:48:33.696Z,58.00
2022-07-30T13:51:02.182Z,57.67
2022-07-30T13:53:29.624Z,58.42
2022-07-30T13:55:59.502Z,57.61
2022-07-30T13:58:26.703Z,57.89
2022-07-30T14:00:53.855Z,57.15
2022-07-30T14:03:20.963Z,57.51
2022-07-30T14:05:48.168Z,57.60
2022-07-30T14:08:15.012Z,57.26
2022-07-30T14:10:42.144Z,57.66
2022-07-30T14:13:14.393Z,57.42
2022-07-30T14:15:48.605Z,57.68
2022-07-30T14:18:15.694Z,57.99
2022-07-30T14:20:45.609Z,58.26
2022-07-30T14:23:16.576Z,57.93
2022-07-30T14:25:44.725Z,58.38
2022-07-30T14:28:12.079Z,58.25
2022-07-30T14:30:39.082Z,58.21
2022-07-30T14:33:06.006Z,57.12
2022-07-30T14:35:32.909Z,57.67
2022-07-30T14:37:59.965Z,58.39
2022-07-30T14:40:26.857Z,59.10
2022-07-30T14:42:56.114Z,60.06
2022-07-30T14:45:23.423Z,59.65
2022-07-30T14:47:50.275Z,59.80
2022-07-30T14:50:17.109Z,59.89
2022-07-30T14:52:44.972Z,59.92
2022-07-30T14:55:11.930Z,59.58
2022-07-30T14:57:38.888Z,60.37
2022-07-30T15:00:11.788Z,60.61
2022-07-30T15:02:40.847Z,60.59
2022-07-30T15:05:09.306Z,60.38
2022-07-30T15:07:36.318Z,60.73
2022-07-30T15:10:07.218Z,60.98
2022-07-30T15:12:34.352Z,60.93
2022-07-30T15:15:05.002Z,61.71
2022-07-30T15:17:35.304Z,61.19
2022-07-30T15:20:02.418Z,61.32
2022-07-30T15:22:29.276Z,61.23
2022-07-30T15:24:56.078Z,60.93
2022-07-30T15:27:33.187Z,60.84
2022-07-30T15:30:01.036Z,61.40
2022-07-30T15:32:30.233Z,61.39
2022-07-30T15:34:58.671Z,61.15
2022-07-30T15:37:26.100Z,60.34
2022-07-30T15:39:53.489Z,61.32
2022-07-30T15:42:20.519Z,61.23
2022-07-30T15:44:49.087Z,61.27
2022-07-30T15:47:16.629Z,61.68
2022-07-30T15:49:44.611Z,61.85
2022-07-30T15:52:11.596Z,61.73
2022-07-30T15:54:40.125Z,61.92
2022-07-30T15:57:07.226Z,62.06
2022-07-30T15:59:34.249Z,62.36
2022-07-30T16:02:01.399Z,62.65
2022-07-30T16:04:31.718Z,62.71
2022-07-30T16:07:04.162Z,61.86
2022-07-30T16:09:31.660Z,61.85
2022-07-30T16:11:59.965Z,61.30
2022-07-30T16:14:27.370Z,61.80
2022-07-30T16:16:54.619Z,61.47
2022-07-30T16:19:21.820Z,62.24
2022-07-30T16:21:48.790Z,62.73
2022-07-30T16:24:15.912Z,63.02
2022-07-30T16:26:43.183Z,63.12
2022-07-30T16:29:13.699Z,63.26
2022-07-30T16:31:41.158Z,63.39
2022-07-30T16:34:08.948Z,63.20
2022-07-30T16:36:36.128Z,63.44
2022-07-30T16:39:04.709Z,63.31
2022-07-30T16:41:31.795Z,63.54
2022-07-30T16:43:58.758Z,63.50
2022-07-30T16:46:26.030Z,63.46
2022-07-30T16:48:53.023Z,64.01
2022-07-30T16:51:20.376Z,63.86
2022-07-30T16:53:48.788Z,64.74
2022-07-30T16:56:16.897Z,64.72
2022-07-30T16:58:43.732Z,64.71
2022-07-30T17:01:10.843Z,65.38
2022-07-30T17:03:38.040Z,65.38
2022-07-30T17:06:05.202Z,65.76
2022-07-30T17:08:32.509Z,66.00
2022-07-30T17:11:01.568Z,65.55
2022-07-30T17:13:28.468Z,66.18
2022-07-30T17:15:55.537Z,66.22
2022-07-30T17:18:22.490Z,66.52
2022-07-30T17:20:49.442Z,67.82
2022-07-30T17:23:16.445Z,69.45
2022-07-30T17:25:43.340Z,69.17
2022-07-30T17:28:10.182Z,69.52
2022-07-30T17:30:37.366Z,69.46
2022-07-30T17:33:06.285Z,70.30
2022-07-30T17:35:34.146Z,71.05
2022-07-30T17:38:01.562Z,70.49
2022-07-30T17:40:31.617Z,70.81
2022-07-30T17:43:04.033Z,71.46
2022-07-30T17:45:36.994Z,70.77
2022-07-30T17:48:05.719Z,70.35
2022-07-30T17:50:34.627Z,71.08
2022-07-30T17:53:04.123Z,70.54
2022-07-30T17:55:35.114Z,70.45
2022-07-30T17:58:04.460Z,71.00
2022-07-30T18:00:31.944Z,71.16
2022-07-30T18:02:59.237Z,70.40
2022-07-30T18:05:26.705Z,69.99
2022-07-30T18:07:53.575Z,69.73
2022-07-30T18:10:20.951Z,69.62
2022-07-30T18:12:48.876Z,69.63
2022-07-30T18:15:18.348Z,69.45
2022-07-30T18:17:45.403Z,69.14
2022-07-30T18:20:12.595Z,69.22
2022-07-30T18:22:40.375Z,69.35
2022-07-30T18:25:19.094Z,69.33
2022-07-30T18:27:48.100Z,69.39
2022-07-30T18:30:17.208Z,69.32
2022-07-30T18:32:45.337Z,68.99
2022-07-30T18:35:14.677Z,69.09
2022-07-30T18:37:44.110Z,69.27
2022-07-30T18:40:13.466Z,69.18
2022-07-30T18:42:41.009Z,68.83
2022-07-30T18:45:10.299Z,69.01
2022-07-30T18:47:37.232Z,68.61
2022-07-30T18:50:04.957Z,68.91
2022-07-30T18:52:32.756Z,69.11
2022-07-30T18:54:59.846Z,69.02
2022-07-30T18:57:27.203Z,69.28
2022-07-30T18:59:54.339Z,69.11
2022-07-30T19:02:25.417Z,68.93
2022-07-30T19:04:53.644Z,68.76
2022-07-30T19:07:20.896Z,68.87
2022-07-30T19:09:48.180Z,68.61
2022-07-30T19:12:15.871Z,68.58
2022-07-30T19:14:44.558Z,68.43
2022-07-30T19:17:14.181Z,68.78
2022-07-30T19:19:42.977Z,68.95
2022-07-30T19:22:10.021Z,68.92
2022-07-30T19:24:37.285Z,68.97
2022-07-30T19:27:05.648Z,69.01
2022-07-30T19:29:32.494Z,69.18
2022-07-30T19:32:00.119Z,69.66
2022-07-30T19:34:27.759Z,69.46
2022-07-30T19:36:54.771Z,69.82
2022-07-30T19:39:22.175Z,69.83
2022-07-30T19:41:50.875Z,69.91
2022-07-30T19:44:18.795Z,70.23
2022-07-30T19:46:46.326Z,69.86
2022-07-30T19:49:17.335Z,70.34
2022-07-30T19:52:09.814Z,70.31
2022-07-30T19:54:34.920Z,70.14
2022-07-30T19:57:04.580Z,70.21
2022-07-30T19:59:45.367Z,70.20
2022-07-30T20:02:18.454Z,70.00
2022-07-30T20:04:45.305Z,70.25
2022-07-30T20:07:12.724Z,70.54
2022-07-30T20:09:42.721Z,70.66
2022-07-30T20:12:10.715Z,70.93
2022-07-30T20:14:37.904Z,70.61
2022-07-30T20:17:10.560Z,70.68
2022-07-30T20:19:37.993Z,70.82
2022-07-30T20:22:04.939Z,70.91
2022-07-30T20:24:33.944Z,71.17
2022-07-30T20:27:01.746Z,70.91
2022-07-30T20:29:48.826Z,70.96
2022-07-30T20:32:17.550Z,70.94
2022-07-30T20:34:44.507Z,70.91
2022-07-30T20:37:21.817Z,70.95
2022-07-30T20:39:51.600Z,70.94
2022-07-30T20:42:18.824Z,70.81
2022-07-30T20:44:50.760Z,70.81
2022-07-30T20:47:34.263Z,70.55
2022-07-30T20:50:11.125Z,70.46
2022-07-30T20:52:46.809Z,70.08
2022-07-30T20:55:22.004Z,69.97
2022-07-30T20:57:58.075Z,70.21
2022-07-30T21:00:36.877Z,70.02
2022-07-30T21:03:05.521Z,69.83
2022-07-30T21:05:32.604Z,69.99
2022-07-30T21:07:59.836Z,69.26
2022-07-30T21:10:27.904Z,69.57
2022-07-30T21:12:58.607Z,69.25
2022-07-30T21:15:36.083Z,69.58
2022-07-30T21:18:03.939Z,69.54
2022-07-30T21:20:31.776Z,69.74
2022-07-30T21:23:09.936Z,69.99
2022-07-30T21:26:01.308Z,70.14
2022-07-30T21:28:28.087Z,70.28
2022-07-30T21:30:57.366Z,70.40
2022-07-30T21:33:30.975Z,70.58
2022-07-30T21:35:59.589Z,70.49
2022-07-30T21:38:27.666Z,70.33
2022-07-30T21:40:55.580Z,70.43
2022-07-30T21:43:29.976Z,70.59
2022-07-30T21:46:06.474Z,70.55
2022-07-30T21:48:33.730Z,70.52
2022-07-30T21:51:01.305Z,70.82
2022-07-30T21:53:45.319Z,70.51
2022-07-30T21:56:15.851Z,70.62
2022-07-30T21:58:43.676Z,71.05
2022-07-30T22:01:17.935Z,70.66
2022-07-30T22:04:02.885Z,70.59
2022-07-30T22:06:38.414Z,70.85
2022-07-30T22:09:19.509Z,70.71
2022-07-30T22:11:56.922Z,70.92
2022-07-30T22:14:29.200Z,70.71
2022-07-30T22:16:56.929Z,70.81
2022-07-30T22:19:25.926Z,71.08
2022-07-30T22:21:53.174Z,70.98
2022-07-30T22:24:28.775Z,71.05
2022-07-30T22:27:12.577Z,70.96
2022-07-30T22:29:43.344Z,70.94
2022-07-30T22:32:12.360Z,71.00
2022-07-30T22:34:39.468Z,71.34
2022-07-30T22:37:09.299Z,70.98
2022-07-30T22:39:50.929Z,71.21
2022-07-30T22:42:24.244Z,71.28
2022-07-30T22:44:54.893Z,71.06
2022-07-30T22:47:51.022Z,71.11
2022-07-30T22:50:10.619Z,70.82
2022-07-30T22:52:48.959Z,70.88
2022-07-30T22:55:27.897Z,70.96
2022-07-30T22:57:56.579Z,70.52
2022-07-30T23:00:28.141Z,70.79
2022-07-30T23:02:57.982Z,70.80
2022-07-30T23:05:25.409Z,70.73
2022-07-30T23:07:53.035Z,70.61
2022-07-30T23:10:20.633Z,70.92
2022-07-30T23:12:53.888Z,71.35
2022-07-30T23:15:22.231Z,70.88
2022-07-30T23:17:49.200Z,71.08
2022-07-30T23:20:21.429Z,71.01
2022-07-30T23:22:49.369Z,71.03
2022-07-30T23:25:16.247Z,71.13
2022-07-30T23:27:43.950Z,71.45
2022-07-30T23:30:11.973Z,70.91
2022-07-30T23:32:42.674Z,71.15
2022-07-30T23:35:10.115Z,70.99
2022-07-30T23:37:49.017Z,71.19
2022-07-30T23:40:19.567Z,71.06
2022-07-30T23:42:47.723Z,71.01
2022-07-30T23:45:14.835Z,71.37
2022-07-30T23:48:00.994Z,71.30
2022-07-30T23:50:33.856Z,71.26
2022-07-30T23:53:02.390Z,71.22
2022-07-30T23:55:31.283Z,71.20
2022-07-30T23:57:58.677Z,71.14
